sensor_id;sensor_type;location;lat;lon;timestamp;P1;durP1;ratioP1;P2;durP2;ratioP2
79759;SDS011;70512;42.122;24.732;2023-06-22T00:01:01;16.60;;;14.05;;
79759;SDS011;70512;42.122;24.732;2023-06-22T00:03:29;17.37;;;13.58;;
79759;SDS011;70512;42.122;24.732;2023-06-22T00:05:59;24.70;;;14.35;;
79759;SDS011;70512;42.122;24.732;2023-06-22T00:08:27;17.82;;;13.78;;
79759;SDS011;70512;42.122;24.732;2023-06-22T00:10:57;16.25;;;13.53;;
79759;SDS011;70512;42.122;24.732;2023-06-22T00:13:24;17.50;;;14.45;;
79759;SDS011;70512;42.122;24.732;2023-06-22T00:15:52;15.50;;;13.90;;
79759;SDS011;70512;42.122;24.732;2023-06-22T00:18:20;20.08;;;14.65;;
79759;SDS011;70512;42.122;24.732;2023-06-22T00:20:47;17.20;;;13.78;;
79759;SDS011;70512;42.122;24.732;2023-06-22T00:23:15;17.27;;;12.93;;
79759;SDS011;70512;42.122;24.732;2023-06-22T00:25:45;20.68;;;14.93;;
79759;SDS011;70512;42.122;24.732;2023-06-22T00:28:12;54.45;;;19.25;;
79759;SDS011;70512;42.122;24.732;2023-06-22T00:30:39;23.22;;;16.10;;
79759;SDS011;70512;42.122;24.732;2023-06-22T00:33:07;16.52;;;14.45;;
79759;SDS011;70512;42.122;24.732;2023-06-22T00:35:35;145.90;;;38.73;;
79759;SDS011;70512;42.122;24.732;2023-06-22T00:38:02;31.95;;;16.15;;
79759;SDS011;70512;42.122;24.732;2023-06-22T00:40:31;22.60;;;16.57;;
79759;SDS011;70512;42.122;24.732;2023-06-22T00:42:59;18.05;;;15.18;;
79759;SDS011;70512;42.122;24.732;2023-06-22T00:45:27;28.73;;;16.82;;
79759;SDS011;70512;42.122;24.732;2023-06-22T00:47:56;19.87;;;16.48;;
79759;SDS011;70512;42.122;24.732;2023-06-22T00:50:26;17.27;;;14.03;;
79759;SDS011;70512;42.122;24.732;2023-06-22T00:52:56;17.85;;;13.85;;
79759;SDS011;70512;42.122;24.732;2023-06-22T00:55:24;19.70;;;14.15;;
79759;SDS011;70512;42.122;24.732;2023-06-22T00:57:53;13.68;;;12.23;;
79759;SDS011;70512;42.122;24.732;2023-06-22T01:00:24;17.98;;;12.78;;
79759;SDS011;70512;42.122;24.732;2023-06-22T01:02:52;14.20;;;12.15;;
79759;SDS011;70512;42.122;24.732;2023-06-22T01:05:20;14.25;;;12.73;;
79759;SDS011;70512;42.122;24.732;2023-06-22T01:08:04;16.20;;;14.20;;
79759;SDS011;70512;42.122;24.732;2023-06-22T01:10:57;16.90;;;13.18;;
79759;SDS011;70512;42.122;24.732;2023-06-22T01:13:48;23.18;;;15.00;;
79759;SDS011;70512;42.122;24.732;2023-06-22T01:16:35;16.55;;;12.90;;
79759;SDS011;70512;42.122;24.732;2023-06-22T01:21:43;17.45;;;13.13;;
79759;SDS011;70512;42.122;24.732;2023-06-22T01:24:23;17.62;;;13.30;;
79759;SDS011;70512;42.122;24.732;2023-06-22T01:27:02;18.67;;;14.60;;
79759;SDS011;70512;42.122;24.732;2023-06-22T01:29:40;19.87;;;14.70;;
79759;SDS011;70512;42.122;24.732;2023-06-22T01:32:08;16.95;;;14.10;;
79759;SDS011;70512;42.122;24.732;2023-06-22T01:34:37;20.92;;;14.65;;
79759;SDS011;70512;42.122;24.732;2023-06-22T01:37:06;20.10;;;15.23;;
79759;SDS011;70512;42.122;24.732;2023-06-22T01:39:34;20.05;;;15.55;;
79759;SDS011;70512;42.122;24.732;2023-06-22T01:42:03;18.23;;;13.53;;
79759;SDS011;70512;42.122;24.732;2023-06-22T01:44:31;14.95;;;12.37;;
79759;SDS011;70512;42.122;24.732;2023-06-22T01:47:00;16.82;;;14.30;;
79759;SDS011;70512;42.122;24.732;2023-06-22T01:49:28;19.85;;;13.83;;
79759;SDS011;70512;42.122;24.732;2023-06-22T01:51:56;17.45;;;14.87;;
79759;SDS011;70512;42.122;24.732;2023-06-22T01:54:24;15.60;;;12.25;;
79759;SDS011;70512;42.122;24.732;2023-06-22T01:56:52;14.15;;;12.70;;
79759;SDS011;70512;42.122;24.732;2023-06-22T01:59:25;16.27;;;13.95;;
79759;SDS011;70512;42.122;24.732;2023-06-22T02:02:16;16.37;;;14.23;;
79759;SDS011;70512;42.122;24.732;2023-06-22T02:04:25;13.97;;;12.50;;
79759;SDS011;70512;42.122;24.732;2023-06-22T02:06:56;19.82;;;12.53;;
79759;SDS011;70512;42.122;24.732;2023-06-22T02:09:25;13.50;;;12.10;;
79759;SDS011;70512;42.122;24.732;2023-06-22T02:11:56;13.80;;;12.43;;
79759;SDS011;70512;42.122;24.732;2023-06-22T02:14:25;15.38;;;13.78;;
79759;SDS011;70512;42.122;24.732;2023-06-22T02:16:53;16.60;;;14.05;;
79759;SDS011;70512;42.122;24.732;2023-06-22T02:19:24;17.37;;;15.30;;
79759;SDS011;70512;42.122;24.732;2023-06-22T02:21:51;16.95;;;15.00;;
79759;SDS011;70512;42.122;24.732;2023-06-22T02:24:19;17.48;;;15.00;;
79759;SDS011;70512;42.122;24.732;2023-06-22T02:26:48;22.25;;;14.40;;
79759;SDS011;70512;42.122;24.732;2023-06-22T02:29:16;17.12;;;15.43;;
79759;SDS011;70512;42.122;24.732;2023-06-22T02:31:44;18.30;;;16.40;;
79759;SDS011;70512;42.122;24.732;2023-06-22T02:34:11;16.57;;;14.83;;
79759;SDS011;70512;42.122;24.732;2023-06-22T02:36:41;17.10;;;15.15;;
79759;SDS011;70512;42.122;24.732;2023-06-22T02:39:10;16.73;;;14.58;;
79759;SDS011;70512;42.122;24.732;2023-06-22T02:41:38;18.55;;;15.68;;
79759;SDS011;70512;42.122;24.732;2023-06-22T02:44:07;19.42;;;15.10;;
79759;SDS011;70512;42.122;24.732;2023-06-22T02:46:35;17.90;;;12.90;;
79759;SDS011;70512;42.122;24.732;2023-06-22T02:49:03;18.15;;;14.10;;
79759;SDS011;70512;42.122;24.732;2023-06-22T02:51:32;18.10;;;13.55;;
79759;SDS011;70512;42.122;24.732;2023-06-22T02:54:00;33.20;;;14.85;;
79759;SDS011;70512;42.122;24.732;2023-06-22T02:56:28;18.92;;;16.60;;
79759;SDS011;70512;42.122;24.732;2023-06-22T02:58:57;16.93;;;14.90;;
79759;SDS011;70512;42.122;24.732;2023-06-22T03:01:28;16.05;;;12.55;;
79759;SDS011;70512;42.122;24.732;2023-06-22T03:03:58;16.90;;;14.15;;
79759;SDS011;70512;42.122;24.732;2023-06-22T03:06:27;16.45;;;14.53;;
79759;SDS011;70512;42.122;24.732;2023-06-22T03:09:02;18.07;;;14.10;;
79759;SDS011;70512;42.122;24.732;2023-06-22T03:11:31;16.23;;;14.55;;
79759;SDS011;70512;42.122;24.732;2023-06-22T03:14:00;19.85;;;12.80;;
79759;SDS011;70512;42.122;24.732;2023-06-22T03:16:28;13.38;;;12.07;;
79759;SDS011;70512;42.122;24.732;2023-06-22T03:18:56;12.90;;;11.60;;
79759;SDS011;70512;42.122;24.732;2023-06-22T03:21:24;15.53;;;11.40;;
79759;SDS011;70512;42.122;24.732;2023-06-22T03:23:53;12.13;;;10.93;;
79759;SDS011;70512;42.122;24.732;2023-06-22T03:26:20;18.10;;;11.50;;
79759;SDS011;70512;42.122;24.732;2023-06-22T03:28:49;14.20;;;11.68;;
79759;SDS011;70512;42.122;24.732;2023-06-22T03:31:17;14.78;;;11.40;;
79759;SDS011;70512;42.122;24.732;2023-06-22T03:33:51;14.75;;;12.43;;
79759;SDS011;70512;42.122;24.732;2023-06-22T03:36:16;16.00;;;12.58;;
79759;SDS011;70512;42.122;24.732;2023-06-22T03:38:48;15.88;;;12.23;;
79759;SDS011;70512;42.122;24.732;2023-06-22T03:41:16;16.12;;;12.13;;
79759;SDS011;70512;42.122;24.732;2023-06-22T03:43:44;13.83;;;12.40;;
79759;SDS011;70512;42.122;24.732;2023-06-22T03:46:12;19.60;;;12.43;;
79759;SDS011;70512;42.122;24.732;2023-06-22T03:48:39;21.12;;;13.13;;
79759;SDS011;70512;42.122;24.732;2023-06-22T03:51:07;18.48;;;13.80;;
79759;SDS011;70512;42.122;24.732;2023-06-22T03:53:35;19.07;;;14.63;;
79759;SDS011;70512;42.122;24.732;2023-06-22T03:56:03;19.30;;;13.13;;
79759;SDS011;70512;42.122;24.732;2023-06-22T03:58:30;17.80;;;13.40;;
79759;SDS011;70512;42.122;24.732;2023-06-22T04:00:59;15.95;;;13.40;;
79759;SDS011;70512;42.122;24.732;2023-06-22T04:03:27;18.20;;;12.75;;
79759;SDS011;70512;42.122;24.732;2023-06-22T04:05:54;20.05;;;13.22;;
79759;SDS011;70512;42.122;24.732;2023-06-22T04:08:22;19.35;;;14.07;;
79759;SDS011;70512;42.122;24.732;2023-06-22T04:10:49;16.77;;;13.88;;
79759;SDS011;70512;42.122;24.732;2023-06-22T04:13:17;16.55;;;13.68;;
79759;SDS011;70512;42.122;24.732;2023-06-22T04:15:45;14.93;;;12.93;;
79759;SDS011;70512;42.122;24.732;2023-06-22T04:18:13;18.42;;;13.03;;
79759;SDS011;70512;42.122;24.732;2023-06-22T04:20:40;15.35;;;12.30;;
79759;SDS011;70512;42.122;24.732;2023-06-22T04:23:10;19.60;;;13.00;;
79759;SDS011;70512;42.122;24.732;2023-06-22T04:25:37;19.37;;;12.93;;
79759;SDS011;70512;42.122;24.732;2023-06-22T04:28:05;16.90;;;13.32;;
79759;SDS011;70512;42.122;24.732;2023-06-22T04:30:35;14.85;;;11.75;;
79759;SDS011;70512;42.122;24.732;2023-06-22T04:33:05;16.05;;;12.53;;
79759;SDS011;70512;42.122;24.732;2023-06-22T04:35:32;16.00;;;12.28;;
79759;SDS011;70512;42.122;24.732;2023-06-22T04:38:00;17.12;;;12.73;;
79759;SDS011;70512;42.122;24.732;2023-06-22T04:40:29;18.15;;;12.68;;
79759;SDS011;70512;42.122;24.732;2023-06-22T04:42:57;12.75;;;11.30;;
79759;SDS011;70512;42.122;24.732;2023-06-22T04:45:26;17.35;;;12.82;;
79759;SDS011;70512;42.122;24.732;2023-06-22T04:47:53;16.23;;;12.68;;
79759;SDS011;70512;42.122;24.732;2023-06-22T04:50:21;14.35;;;12.68;;
79759;SDS011;70512;42.122;24.732;2023-06-22T04:52:50;18.57;;;12.63;;
79759;SDS011;70512;42.122;24.732;2023-06-22T04:55:18;18.15;;;12.55;;
79759;SDS011;70512;42.122;24.732;2023-06-22T04:57:46;15.75;;;12.65;;
79759;SDS011;70512;42.122;24.732;2023-06-22T05:00:16;13.48;;;12.15;;
79759;SDS011;70512;42.122;24.732;2023-06-22T05:02:45;20.05;;;12.37;;
79759;SDS011;70512;42.122;24.732;2023-06-22T05:05:13;16.65;;;12.53;;
79759;SDS011;70512;42.122;24.732;2023-06-22T05:07:42;18.52;;;11.95;;
79759;SDS011;70512;42.122;24.732;2023-06-22T05:10:13;18.17;;;11.43;;
79759;SDS011;70512;42.122;24.732;2023-06-22T05:12:41;18.37;;;13.20;;
79759;SDS011;70512;42.122;24.732;2023-06-22T05:15:09;14.07;;;12.33;;
79759;SDS011;70512;42.122;24.732;2023-06-22T05:17:37;15.32;;;12.53;;
79759;SDS011;70512;42.122;24.732;2023-06-22T05:20:07;22.50;;;13.43;;
79759;SDS011;70512;42.122;24.732;2023-06-22T05:22:36;19.87;;;13.72;;
79759;SDS011;70512;42.122;24.732;2023-06-22T05:25:09;15.50;;;11.28;;
79759;SDS011;70512;42.122;24.732;2023-06-22T05:27:34;22.02;;;13.05;;
79759;SDS011;70512;42.122;24.732;2023-06-22T05:30:08;14.73;;;12.55;;
79759;SDS011;70512;42.122;24.732;2023-06-22T05:32:37;15.68;;;11.45;;
79759;SDS011;70512;42.122;24.732;2023-06-22T05:35:05;16.80;;;12.75;;
79759;SDS011;70512;42.122;24.732;2023-06-22T05:37:33;20.12;;;13.43;;
79759;SDS011;70512;42.122;24.732;2023-06-22T05:40:01;17.98;;;12.58;;
79759;SDS011;70512;42.122;24.732;2023-06-22T05:42:29;18.10;;;12.68;;
79759;SDS011;70512;42.122;24.732;2023-06-22T05:44:57;20.43;;;12.75;;
79759;SDS011;70512;42.122;24.732;2023-06-22T05:47:25;13.20;;;11.48;;
79759;SDS011;70512;42.122;24.732;2023-06-22T05:49:52;12.98;;;11.68;;
79759;SDS011;70512;42.122;24.732;2023-06-22T05:52:20;20.15;;;11.38;;
79759;SDS011;70512;42.122;24.732;2023-06-22T05:54:47;14.03;;;10.95;;
79759;SDS011;70512;42.122;24.732;2023-06-22T05:57:15;15.70;;;10.13;;
79759;SDS011;70512;42.122;24.732;2023-06-22T05:59:42;11.93;;;10.15;;
79759;SDS011;70512;42.122;24.732;2023-06-22T06:02:10;16.65;;;10.45;;
79759;SDS011;70512;42.122;24.732;2023-06-22T06:04:38;13.90;;;9.98;;
79759;SDS011;70512;42.122;24.732;2023-06-22T06:07:06;13.45;;;10.35;;
79759;SDS011;70512;42.122;24.732;2023-06-22T06:09:34;11.38;;;10.28;;
79759;SDS011;70512;42.122;24.732;2023-06-22T06:12:02;12.53;;;9.38;;
79759;SDS011;70512;42.122;24.732;2023-06-22T06:14:30;12.93;;;10.10;;
79759;SDS011;70512;42.122;24.732;2023-06-22T06:16:57;12.25;;;9.95;;
79759;SDS011;70512;42.122;24.732;2023-06-22T06:19:25;10.95;;;9.78;;
79759;SDS011;70512;42.122;24.732;2023-06-22T06:21:52;10.82;;;9.88;;
79759;SDS011;70512;42.122;24.732;2023-06-22T06:24:20;15.05;;;10.43;;
79759;SDS011;70512;42.122;24.732;2023-06-22T06:26:47;15.35;;;11.43;;
79759;SDS011;70512;42.122;24.732;2023-06-22T06:29:15;14.60;;;11.38;;
79759;SDS011;70512;42.122;24.732;2023-06-22T06:31:43;11.28;;;9.98;;
79759;SDS011;70512;42.122;24.732;2023-06-22T06:34:10;12.05;;;10.80;;
79759;SDS011;70512;42.122;24.732;2023-06-22T06:36:38;12.45;;;10.88;;
79759;SDS011;70512;42.122;24.732;2023-06-22T06:39:05;17.77;;;10.85;;
79759;SDS011;70512;42.122;24.732;2023-06-22T06:41:34;12.00;;;10.13;;
79759;SDS011;70512;42.122;24.732;2023-06-22T06:44:02;14.00;;;10.78;;
79759;SDS011;70512;42.122;24.732;2023-06-22T06:46:29;13.22;;;10.28;;
79759;SDS011;70512;42.122;24.732;2023-06-22T06:48:57;16.70;;;11.28;;
79759;SDS011;70512;42.122;24.732;2023-06-22T06:51:25;11.85;;;10.50;;
79759;SDS011;70512;42.122;24.732;2023-06-22T06:53:53;10.43;;;9.40;;
79759;SDS011;70512;42.122;24.732;2023-06-22T06:56:20;14.98;;;9.50;;
79759;SDS011;70512;42.122;24.732;2023-06-22T06:58:49;15.48;;;9.53;;
79759;SDS011;70512;42.122;24.732;2023-06-22T07:01:17;12.30;;;9.05;;
79759;SDS011;70512;42.122;24.732;2023-06-22T07:03:45;11.73;;;9.88;;
79759;SDS011;70512;42.122;24.732;2023-06-22T07:06:13;11.93;;;8.95;;
79759;SDS011;70512;42.122;24.732;2023-06-22T07:08:42;13.78;;;8.93;;
79759;SDS011;70512;42.122;24.732;2023-06-22T07:11:10;12.70;;;9.05;;
79759;SDS011;70512;42.122;24.732;2023-06-22T07:13:37;10.53;;;9.35;;
79759;SDS011;70512;42.122;24.732;2023-06-22T07:16:05;11.85;;;8.88;;
79759;SDS011;70512;42.122;24.732;2023-06-22T07:18:32;11.97;;;9.35;;
79759;SDS011;70512;42.122;24.732;2023-06-22T07:21:00;11.28;;;7.87;;
79759;SDS011;70512;42.122;24.732;2023-06-22T07:23:28;14.15;;;10.10;;
79759;SDS011;70512;42.122;24.732;2023-06-22T07:25:56;11.95;;;9.05;;
79759;SDS011;70512;42.122;24.732;2023-06-22T07:28:25;11.35;;;8.98;;
79759;SDS011;70512;42.122;24.732;2023-06-22T07:30:53;11.40;;;9.13;;
79759;SDS011;70512;42.122;24.732;2023-06-22T07:33:20;10.63;;;9.53;;
79759;SDS011;70512;42.122;24.732;2023-06-22T07:35:48;9.35;;;8.38;;
79759;SDS011;70512;42.122;24.732;2023-06-22T07:38:18;11.73;;;8.38;;
79759;SDS011;70512;42.122;24.732;2023-06-22T07:40:45;12.35;;;9.70;;
79759;SDS011;70512;42.122;24.732;2023-06-22T07:43:13;11.15;;;8.65;;
79759;SDS011;70512;42.122;24.732;2023-06-22T07:45:44;12.68;;;8.18;;
79759;SDS011;70512;42.122;24.732;2023-06-22T07:48:13;10.65;;;7.50;;
79759;SDS011;70512;42.122;24.732;2023-06-22T07:50:41;8.63;;;7.70;;
79759;SDS011;70512;42.122;24.732;2023-06-22T07:53:09;9.50;;;7.12;;
79759;SDS011;70512;42.122;24.732;2023-06-22T07:55:37;9.00;;;8.08;;
79759;SDS011;70512;42.122;24.732;2023-06-22T07:58:04;11.25;;;8.53;;
79759;SDS011;70512;42.122;24.732;2023-06-22T08:00:33;11.63;;;7.80;;
79759;SDS011;70512;42.122;24.732;2023-06-22T08:03:01;12.65;;;7.60;;
79759;SDS011;70512;42.122;24.732;2023-06-22T08:05:30;11.88;;;8.10;;
79759;SDS011;70512;42.122;24.732;2023-06-22T08:07:58;14.07;;;7.22;;
79759;SDS011;70512;42.122;24.732;2023-06-22T08:10:26;7.37;;;6.67;;
79759;SDS011;70512;42.122;24.732;2023-06-22T08:12:53;7.97;;;7.17;;
79759;SDS011;70512;42.122;24.732;2023-06-22T08:15:21;10.18;;;7.60;;
79759;SDS011;70512;42.122;24.732;2023-06-22T08:17:49;12.60;;;7.85;;
79759;SDS011;70512;42.122;24.732;2023-06-22T08:20:18;15.23;;;8.20;;
79759;SDS011;70512;42.122;24.732;2023-06-22T08:22:45;9.35;;;7.78;;
79759;SDS011;70512;42.122;24.732;2023-06-22T08:25:13;10.75;;;7.72;;
79759;SDS011;70512;42.122;24.732;2023-06-22T08:27:40;11.75;;;8.30;;
79759;SDS011;70512;42.122;24.732;2023-06-22T08:30:13;8.50;;;6.40;;
79759;SDS011;70512;42.122;24.732;2023-06-22T08:32:42;8.08;;;7.28;;
79759;SDS011;70512;42.122;24.732;2023-06-22T08:35:10;7.62;;;6.97;;
79759;SDS011;70512;42.122;24.732;2023-06-22T08:37:37;9.95;;;7.67;;
79759;SDS011;70512;42.122;24.732;2023-06-22T08:40:08;7.87;;;7.17;;
79759;SDS011;70512;42.122;24.732;2023-06-22T08:42:36;13.25;;;7.53;;
79759;SDS011;70512;42.122;24.732;2023-06-22T08:45:05;9.70;;;7.62;;
79759;SDS011;70512;42.122;24.732;2023-06-22T08:47:33;8.23;;;7.40;;
79759;SDS011;70512;42.122;24.732;2023-06-22T08:50:06;11.75;;;7.17;;
79759;SDS011;70512;42.122;24.732;2023-06-22T08:52:31;11.35;;;7.62;;
79759;SDS011;70512;42.122;24.732;2023-06-22T08:54:58;8.80;;;7.28;;
79759;SDS011;70512;42.122;24.732;2023-06-22T08:57:26;9.43;;;6.97;;
79759;SDS011;70512;42.122;24.732;2023-06-22T08:59:56;13.10;;;7.97;;
79759;SDS011;70512;42.122;24.732;2023-06-22T09:02:26;10.53;;;9.43;;
79759;SDS011;70512;42.122;24.732;2023-06-22T09:04:59;13.85;;;8.05;;
79759;SDS011;70512;42.122;24.732;2023-06-22T09:07:28;9.58;;;6.62;;
79759;SDS011;70512;42.122;24.732;2023-06-22T09:09:56;9.10;;;7.05;;
79759;SDS011;70512;42.122;24.732;2023-06-22T09:12:23;8.15;;;6.65;;
79759;SDS011;70512;42.122;24.732;2023-06-22T09:14:53;12.23;;;10.88;;
79759;SDS011;70512;42.122;24.732;2023-06-22T09:17:21;11.43;;;7.17;;
79759;SDS011;70512;42.122;24.732;2023-06-22T09:19:49;7.90;;;6.65;;
79759;SDS011;70512;42.122;24.732;2023-06-22T09:22:17;7.12;;;6.42;;
79759;SDS011;70512;42.122;24.732;2023-06-22T09:24:45;8.75;;;6.60;;
79759;SDS011;70512;42.122;24.732;2023-06-22T09:27:12;9.03;;;6.85;;
79759;SDS011;70512;42.122;24.732;2023-06-22T09:29:40;7.78;;;6.95;;
79759;SDS011;70512;42.122;24.732;2023-06-22T09:32:08;7.95;;;7.25;;
79759;SDS011;70512;42.122;24.732;2023-06-22T09:34:35;8.65;;;7.15;;
79759;SDS011;70512;42.122;24.732;2023-06-22T09:37:03;10.53;;;8.65;;
79759;SDS011;70512;42.122;24.732;2023-06-22T09:39:31;9.58;;;7.10;;
79759;SDS011;70512;42.122;24.732;2023-06-22T09:41:59;8.15;;;7.35;;
79759;SDS011;70512;42.122;24.732;2023-06-22T09:44:27;9.35;;;6.95;;
79759;SDS011;70512;42.122;24.732;2023-06-22T09:46:54;9.78;;;7.15;;
79759;SDS011;70512;42.122;24.732;2023-06-22T09:49:22;12.85;;;7.17;;
79759;SDS011;70512;42.122;24.732;2023-06-22T09:51:50;10.25;;;7.55;;
79759;SDS011;70512;42.122;24.732;2023-06-22T09:54:18;7.95;;;7.12;;
79759;SDS011;70512;42.122;24.732;2023-06-22T09:56:46;9.03;;;7.03;;
79759;SDS011;70512;42.122;24.732;2023-06-22T09:59:13;13.03;;;7.22;;
79759;SDS011;70512;42.122;24.732;2023-06-22T10:01:41;9.83;;;7.55;;
79759;SDS011;70512;42.122;24.732;2023-06-22T10:04:08;8.33;;;6.95;;
79759;SDS011;70512;42.122;24.732;2023-06-22T10:06:36;10.63;;;6.65;;
79759;SDS011;70512;42.122;24.732;2023-06-22T10:09:06;9.08;;;6.33;;
79759;SDS011;70512;42.122;24.732;2023-06-22T10:11:34;9.35;;;6.97;;
79759;SDS011;70512;42.122;24.732;2023-06-22T10:14:02;11.20;;;7.80;;
79759;SDS011;70512;42.122;24.732;2023-06-22T10:16:30;8.55;;;7.75;;
79759;SDS011;70512;42.122;24.732;2023-06-22T10:18:58;8.73;;;7.17;;
79759;SDS011;70512;42.122;24.732;2023-06-22T10:21:26;11.08;;;8.98;;
79759;SDS011;70512;42.122;24.732;2023-06-22T10:23:54;8.55;;;7.05;;
79759;SDS011;70512;42.122;24.732;2023-06-22T10:26:22;10.75;;;8.23;;
79759;SDS011;70512;42.122;24.732;2023-06-22T10:28:50;8.48;;;7.12;;
79759;SDS011;70512;42.122;24.732;2023-06-22T10:31:18;10.30;;;7.08;;
79759;SDS011;70512;42.122;24.732;2023-06-22T10:33:45;12.53;;;6.97;;
79759;SDS011;70512;42.122;24.732;2023-06-22T10:36:15;8.60;;;6.90;;
79759;SDS011;70512;42.122;24.732;2023-06-22T10:38:42;7.78;;;6.97;;
79759;SDS011;70512;42.122;24.732;2023-06-22T10:41:11;8.15;;;6.47;;
79759;SDS011;70512;42.122;24.732;2023-06-22T10:43:38;8.20;;;6.45;;
79759;SDS011;70512;42.122;24.732;2023-06-22T10:46:06;10.95;;;7.50;;
79759;SDS011;70512;42.122;24.732;2023-06-22T10:48:34;8.80;;;8.00;;
79759;SDS011;70512;42.122;24.732;2023-06-22T10:51:02;7.72;;;6.92;;
79759;SDS011;70512;42.122;24.732;2023-06-22T10:53:29;10.15;;;8.23;;
79759;SDS011;70512;42.122;24.732;2023-06-22T10:55:58;11.38;;;6.80;;
79759;SDS011;70512;42.122;24.732;2023-06-22T10:58:26;15.40;;;7.33;;
79759;SDS011;70512;42.122;24.732;2023-06-22T11:00:53;22.30;;;8.50;;
79759;SDS011;70512;42.122;24.732;2023-06-22T11:03:21;38.40;;;13.98;;
79759;SDS011;70512;42.122;24.732;2023-06-22T11:05:48;22.30;;;9.83;;
79759;SDS011;70512;42.122;24.732;2023-06-22T11:08:16;70.52;;;16.60;;
79759;SDS011;70512;42.122;24.732;2023-06-22T11:10:44;29.60;;;10.80;;
79759;SDS011;70512;42.122;24.732;2023-06-22T11:13:11;20.17;;;8.15;;
79759;SDS011;70512;42.122;24.732;2023-06-22T11:15:39;11.75;;;8.43;;
79759;SDS011;70512;42.122;24.732;2023-06-22T11:18:07;7.65;;;6.95;;
79759;SDS011;70512;42.122;24.732;2023-06-22T11:20:35;11.50;;;6.47;;
79759;SDS011;70512;42.122;24.732;2023-06-22T11:23:04;6.20;;;5.45;;
79759;SDS011;70512;42.122;24.732;2023-06-22T11:25:32;9.95;;;6.92;;
79759;SDS011;70512;42.122;24.732;2023-06-22T11:28:04;9.28;;;5.92;;
79759;SDS011;70512;42.122;24.732;2023-06-22T11:30:32;6.70;;;5.97;;
79759;SDS011;70512;42.122;24.732;2023-06-22T11:33:00;6.12;;;5.58;;
79759;SDS011;70512;42.122;24.732;2023-06-22T11:35:28;7.37;;;5.90;;
79759;SDS011;70512;42.122;24.732;2023-06-22T11:37:57;6.50;;;5.90;;
79759;SDS011;70512;42.122;24.732;2023-06-22T11:40:24;11.20;;;6.62;;
79759;SDS011;70512;42.122;24.732;2023-06-22T11:42:52;6.67;;;6.03;;
79759;SDS011;70512;42.122;24.732;2023-06-22T11:45:20;7.47;;;6.10;;
79759;SDS011;70512;42.122;24.732;2023-06-22T11:47:47;9.20;;;6.10;;
79759;SDS011;70512;42.122;24.732;2023-06-22T11:50:15;8.20;;;7.28;;
79759;SDS011;70512;42.122;24.732;2023-06-22T11:52:42;7.62;;;7.05;;
79759;SDS011;70512;42.122;24.732;2023-06-22T11:55:10;7.43;;;6.60;;
79759;SDS011;70512;42.122;24.732;2023-06-22T11:57:38;7.77;;;7.07;;
79759;SDS011;70512;42.122;24.732;2023-06-22T12:00:08;6.45;;;5.95;;
79759;SDS011;70512;42.122;24.732;2023-06-22T12:02:44;7.33;;;6.33;;
79759;SDS011;70512;42.122;24.732;2023-06-22T12:05:11;6.60;;;6.10;;
79759;SDS011;70512;42.122;24.732;2023-06-22T12:07:39;6.28;;;5.87;;
79759;SDS011;70512;42.122;24.732;2023-06-22T12:10:07;9.50;;;6.70;;
79759;SDS011;70512;42.122;24.732;2023-06-22T12:12:35;9.08;;;6.97;;
79759;SDS011;70512;42.122;24.732;2023-06-22T12:15:02;8.05;;;6.35;;
79759;SDS011;70512;42.122;24.732;2023-06-22T12:17:31;6.47;;;5.87;;
79759;SDS011;70512;42.122;24.732;2023-06-22T12:20:00;8.60;;;6.22;;
79759;SDS011;70512;42.122;24.732;2023-06-22T12:22:29;6.40;;;5.85;;
79759;SDS011;70512;42.122;24.732;2023-06-22T12:24:58;7.42;;;6.75;;
79759;SDS011;70512;42.122;24.732;2023-06-22T12:27:26;6.97;;;6.47;;
79759;SDS011;70512;42.122;24.732;2023-06-22T12:29:54;7.00;;;6.50;;
79759;SDS011;70512;42.122;24.732;2023-06-22T12:32:21;12.50;;;7.83;;
79759;SDS011;70512;42.122;24.732;2023-06-22T12:34:49;9.90;;;7.97;;
79759;SDS011;70512;42.122;24.732;2023-06-22T12:37:17;10.95;;;7.87;;
79759;SDS011;70512;42.122;24.732;2023-06-22T12:39:44;7.40;;;6.77;;
79759;SDS011;70512;42.122;24.732;2023-06-22T12:42:12;7.80;;;6.53;;
79759;SDS011;70512;42.122;24.732;2023-06-22T12:44:40;7.62;;;6.87;;
79759;SDS011;70512;42.122;24.732;2023-06-22T12:47:08;7.55;;;6.95;;
79759;SDS011;70512;42.122;24.732;2023-06-22T12:49:37;7.00;;;6.40;;
79759;SDS011;70512;42.122;24.732;2023-06-22T12:52:11;7.83;;;7.08;;
79759;SDS011;70512;42.122;24.732;2023-06-22T12:54:38;7.20;;;6.60;;
79759;SDS011;70512;42.122;24.732;2023-06-22T12:57:06;12.78;;;8.30;;
79759;SDS011;70512;42.122;24.732;2023-06-22T12:59:34;8.90;;;7.22;;
79759;SDS011;70512;42.122;24.732;2023-06-22T13:02:01;11.85;;;6.65;;
79759;SDS011;70512;42.122;24.732;2023-06-22T13:04:29;10.78;;;7.10;;
79759;SDS011;70512;42.122;24.732;2023-06-22T13:06:57;10.78;;;8.85;;
79759;SDS011;70512;42.122;24.732;2023-06-22T13:09:24;7.33;;;6.65;;
79759;SDS011;70512;42.122;24.732;2023-06-22T13:11:52;7.90;;;6.78;;
79759;SDS011;70512;42.122;24.732;2023-06-22T13:14:19;8.13;;;6.70;;
79759;SDS011;70512;42.122;24.732;2023-06-22T13:16:47;9.00;;;7.00;;
79759;SDS011;70512;42.122;24.732;2023-06-22T13:19:14;10.15;;;8.53;;
79759;SDS011;70512;42.122;24.732;2023-06-22T13:21:42;9.50;;;8.10;;
79759;SDS011;70512;42.122;24.732;2023-06-22T13:24:10;12.10;;;8.23;;
79759;SDS011;70512;42.122;24.732;2023-06-22T13:26:37;12.03;;;8.28;;
79759;SDS011;70512;42.122;24.732;2023-06-22T13:29:05;11.65;;;7.00;;
79759;SDS011;70512;42.122;24.732;2023-06-22T13:31:33;9.75;;;7.42;;
79759;SDS011;70512;42.122;24.732;2023-06-22T13:34:00;7.33;;;6.70;;
79759;SDS011;70512;42.122;24.732;2023-06-22T13:36:28;8.60;;;7.70;;
79759;SDS011;70512;42.122;24.732;2023-06-22T13:38:56;8.03;;;7.25;;
79759;SDS011;70512;42.122;24.732;2023-06-22T13:41:24;10.68;;;7.25;;
79759;SDS011;70512;42.122;24.732;2023-06-22T13:43:51;7.60;;;6.90;;
79759;SDS011;70512;42.122;24.732;2023-06-22T13:46:19;9.68;;;7.37;;
79759;SDS011;70512;42.122;24.732;2023-06-22T13:48:47;15.53;;;8.65;;
79759;SDS011;70512;42.122;24.732;2023-06-22T13:51:14;10.10;;;7.65;;
79759;SDS011;70512;42.122;24.732;2023-06-22T13:53:42;11.78;;;7.55;;
79759;SDS011;70512;42.122;24.732;2023-06-22T13:56:09;17.48;;;7.50;;
79759;SDS011;70512;42.122;24.732;2023-06-22T13:58:37;13.78;;;8.85;;
79759;SDS011;70512;42.122;24.732;2023-06-22T14:01:05;14.83;;;8.90;;
79759;SDS011;70512;42.122;24.732;2023-06-22T14:03:32;10.32;;;7.72;;
79759;SDS011;70512;42.122;24.732;2023-06-22T14:06:00;11.70;;;8.13;;
79759;SDS011;70512;42.122;24.732;2023-06-22T14:08:27;9.35;;;7.87;;
79759;SDS011;70512;42.122;24.732;2023-06-22T14:10:55;11.88;;;8.00;;
79759;SDS011;70512;42.122;24.732;2023-06-22T14:13:22;12.37;;;7.10;;
79759;SDS011;70512;42.122;24.732;2023-06-22T14:15:50;8.40;;;7.60;;
79759;SDS011;70512;42.122;24.732;2023-06-22T14:18:19;11.63;;;8.95;;
79759;SDS011;70512;42.122;24.732;2023-06-22T14:20:49;11.83;;;7.55;;
79759;SDS011;70512;42.122;24.732;2023-06-22T14:23:16;10.18;;;7.55;;
79759;SDS011;70512;42.122;24.732;2023-06-22T14:25:44;23.25;;;15.03;;
79759;SDS011;70512;42.122;24.732;2023-06-22T14:28:11;12.40;;;7.75;;